createdAt,value
2022-08-22T00:01:16.742Z,24.87
2022-08-22T00:02:55.897Z,26.73
2022-08-22T00:02:59.713Z,26.46
2022-08-22T00:03:03.387Z,25.45
2022-08-22T00:03:09.129Z,25.67
2022-08-22T00:03:10.809Z,25.04
2022-08-22T00:03:51.225Z,24.89
2022-08-22T00:06:24.536Z,24.83
2022-08-22T00:09:17.078Z,24.71
2022-08-22T00:11:51.991Z,24.65
2022-08-22T00:14:24.531Z,24.54
2022-08-22T00:17:05.475Z,24.39
2022-08-22T00:19:42.172Z,24.26
2022-08-22T00:22:17.540Z,24.21
2022-08-22T00:24:51.941Z,24.16
2022-08-22T00:27:26.760Z,24.11
2022-08-22T00:29:58.749Z,24.04
2022-08-22T00:32:35.507Z,23.94
2022-08-22T00:35:10.076Z,23.86
2022-08-22T00:37:44.883Z,23.81
2022-08-22T00:40:35.657Z,23.79
2022-08-22T00:43:09.654Z,23.78
2022-08-22T00:46:03.264Z,23.83
2022-08-22T00:48:40.495Z,23.78
2022-08-22T00:51:21.715Z,23.69
2022-08-22T00:53:58.823Z,23.63
2022-08-22T00:56:45.074Z,23.64
2022-08-22T00:59:25.852Z,23.72
2022-08-22T01:02:01.404Z,23.79
2022-08-22T01:04:41.643Z,23.83
2022-08-22T01:07:16.107Z,23.84
2022-08-22T01:09:54.410Z,23.83
2022-08-22T01:12:47.608Z,23.82
2022-08-22T01:15:19.141Z,23.83
2022-08-22T01:18:09.656Z,23.80
2022-08-22T01:21:05.082Z,23.79
2022-08-22T01:23:47.088Z,23.82
2022-08-22T01:26:35.580Z,23.78
2022-08-22T01:29:27.707Z,23.81
2022-08-22T01:32:12.749Z,23.82
2022-08-22T01:35:04.336Z,23.78
2022-08-22T01:38:04.152Z,23.75
2022-08-22T01:40:54.444Z,23.72
2022-08-22T01:43:43.840Z,23.79
2022-08-22T01:46:27.984Z,23.83
2022-08-22T01:49:07.151Z,23.86
2022-08-22T01:51:39.951Z,23.86
2022-08-22T01:54:16.509Z,23.83
2022-08-22T01:56:49.756Z,23.83
2022-08-22T01:59:33.734Z,23.79
2022-08-22T02:02:11.048Z,23.77
2022-08-22T02:04:44.480Z,23.75
2022-08-22T02:07:19.536Z,23.72
2022-08-22T02:10:06.687Z,23.70
2022-08-22T02:12:39.335Z,23.72
2022-08-22T02:15:22.991Z,23.71
2022-08-22T02:18:14.718Z,23.74
2022-08-22T02:20:59.867Z,23.79
2022-08-22T02:23:35.659Z,23.82
2022-08-22T02:26:07.772Z,23.83
2022-08-22T02:28:57.041Z,23.84
2022-08-22T02:31:34.745Z,23.89
2022-08-22T02:34:17.143Z,23.92
2022-08-22T02:36:48.590Z,23.96
2022-08-22T02:39:25.844Z,24.01
2022-08-22T02:41:57.144Z,24.04
2022-08-22T02:44:30.715Z,24.09
2022-08-22T02:47:04.392Z,24.14
2022-08-22T02:49:44.046Z,24.20
2022-08-22T02:52:25.959Z,24.21
2022-08-22T02:55:01.454Z,24.25
2022-08-22T02:57:40.517Z,24.29
2022-08-22T03:00:30.779Z,24.27
2022-08-22T03:03:11.764Z,24.27
2022-08-22T03:05:50.340Z,24.28
2022-08-22T03:08:24.250Z,24.30
2022-08-22T03:10:59.008Z,24.34
2022-08-22T03:13:35.189Z,24.36
2022-08-22T03:16:10.957Z,24.38
2022-08-22T03:18:45.315Z,24.38
2022-08-22T03:21:20.465Z,24.39
2022-08-22T03:23:52.379Z,24.42
2022-08-22T03:26:26.366Z,24.43
2022-08-22T03:28:59.945Z,24.44
2022-08-22T03:31:33.514Z,24.48
2022-08-22T03:34:22.544Z,24.51
2022-08-22T03:37:04.865Z,24.53
2022-08-22T03:39:44.493Z,24.57
2022-08-22T03:42:25.279Z,24.59
2022-08-22T03:45:10.683Z,24.62
2022-08-22T03:48:01.609Z,24.64
2022-08-22T03:50:54.645Z,24.68
2022-08-22T03:53:51.748Z,24.70
2022-08-22T03:56:26.764Z,24.74
2022-08-22T03:59:15.344Z,24.77
2022-08-22T04:02:04.575Z,24.81
2022-08-22T04:05:05.277Z,24.84
2022-08-22T04:07:48.370Z,24.79
2022-08-22T04:10:51.825Z,24.75
2022-08-22T04:13:35.881Z,24.81
2022-08-22T04:16:32.078Z,24.83
2022-08-22T04:19:16.080Z,24.84
2022-08-22T04:22:10.472Z,24.86
2022-08-22T04:25:00.585Z,24.87
2022-08-22T04:27:34.337Z,24.91
2022-08-22T04:30:07.100Z,24.94
2022-08-22T04:32:39.423Z,24.96
2022-08-22T04:35:12.245Z,24.98
2022-08-22T04:37:46.537Z,24.96
2022-08-22T04:40:18.934Z,24.97
2022-08-22T04:42:53.514Z,24.99
2022-08-22T04:45:25.649Z,25.01
2022-08-22T04:47:58.051Z,25.01
2022-08-22T04:50:34.184Z,24.97
2022-08-22T04:53:14.001Z,24.99
2022-08-22T04:55:48.185Z,25.05
2022-08-22T04:58:23.728Z,25.09
2022-08-22T05:00:58.680Z,25.10
2022-08-22T05:03:30.100Z,25.08
2022-08-22T05:06:05.702Z,25.06
2022-08-22T05:08:39.663Z,25.09
2022-08-22T05:11:10.718Z,25.14
2022-08-22T05:13:47.364Z,25.20
2022-08-22T05:16:24.380Z,25.25
2022-08-22T05:19:04.049Z,25.33
2022-08-22T05:21:35.645Z,25.37
2022-08-22T05:24:07.188Z,25.42
2022-08-22T05:26:39.344Z,25.44
2022-08-22T05:29:13.650Z,25.42
2022-08-22T05:31:45.193Z,25.43
2022-08-22T05:34:18.835Z,25.44
2022-08-22T05:36:50.391Z,25.48
2022-08-22T05:39:21.957Z,25.55
2022-08-22T05:41:57.055Z,25.61
2022-08-22T05:44:29.199Z,25.68
2022-08-22T05:47:01.730Z,25.72
2022-08-22T05:49:33.332Z,25.73
2022-08-22T05:52:07.351Z,25.70
2022-08-22T05:54:42.767Z,25.70
2022-08-22T05:57:15.275Z,25.75
2022-08-22T05:59:46.664Z,25.82
2022-08-22T06:02:23.633Z,25.90
2022-08-22T06:04:57.832Z,25.94
2022-08-22T06:07:32.368Z,25.95
2022-08-22T06:10:20.184Z,25.95
2022-08-22T06:12:53.715Z,25.95
2022-08-22T06:15:25.033Z,25.97
2022-08-22T06:17:56.365Z,25.96
2022-08-22T06:20:31.951Z,25.91
2022-08-22T06:23:05.715Z,25.84
2022-08-22T06:25:37.960Z,25.80
2022-08-22T06:28:09.980Z,25.80
2022-08-22T06:30:40.844Z,25.77
2022-08-22T06:33:12.976Z,25.74
2022-08-22T06:36:02.533Z,25.77
2022-08-22T06:38:34.549Z,25.89
2022-08-22T06:41:08.196Z,25.98
2022-08-22T06:43:43.008Z,26.03
2022-08-22T06:46:13.996Z,26.13
2022-08-22T06:48:47.742Z,26.19
2022-08-22T06:51:19.147Z,26.25
2022-08-22T06:53:52.770Z,26.30
2022-08-22T06:56:25.548Z,26.34
2022-08-22T06:58:57.645Z,26.36
2022-08-22T07:01:29.627Z,26.42
2022-08-22T07:04:01.583Z,26.45
2022-08-22T07:06:33.503Z,26.45
2022-08-22T07:09:07.338Z,26.49
2022-08-22T07:11:39.948Z,26.51
2022-08-22T07:14:11.746Z,26.51
2022-08-22T07:16:43.778Z,26.53
2022-08-22T07:19:24.082Z,26.53
2022-08-22T07:21:55.059Z,26.44
2022-08-22T07:24:27.233Z,26.39
2022-08-22T07:27:09.297Z,26.38
2022-08-22T07:29:44.339Z,26.42
2022-08-22T07:32:16.583Z,26.39
2022-08-22T07:34:57.155Z,26.44
2022-08-22T07:37:31.003Z,26.54
2022-08-22T07:40:03.770Z,26.59
2022-08-22T07:42:36.243Z,26.60
2022-08-22T07:45:08.708Z,26.64
2022-08-22T07:47:48.018Z,26.66
2022-08-22T07:50:22.040Z,26.68
2022-08-22T07:52:52.867Z,26.68
2022-08-22T07:55:24.407Z,26.66
2022-08-22T07:57:59.261Z,26.71
2022-08-22T08:00:32.748Z,26.82
2022-08-22T08:03:04.686Z,26.88
2022-08-22T08:05:37.413Z,26.96
2022-08-22T08:08:08.611Z,27.04
2022-08-22T08:10:44.817Z,27.14
2022-08-22T08:13:18.056Z,27.07
2022-08-22T08:15:48.928Z,27.06
2022-08-22T08:18:25.916Z,27.13
2022-08-22T08:20:58.688Z,27.21
2022-08-22T08:23:39.442Z,27.31
2022-08-22T08:26:16.424Z,27.35
2022-08-22T08:28:47.797Z,27.40
2022-08-22T08:31:21.195Z,27.52
2022-08-22T08:33:53.021Z,27.62
2022-08-22T08:36:29.060Z,27.75
2022-08-22T08:39:01.318Z,27.92
2022-08-22T08:41:42.379Z,28.12
2022-08-22T08:44:24.360Z,28.35
2022-08-22T08:47:01.737Z,28.65
2022-08-22T08:49:51.273Z,28.93
2022-08-22T08:52:37.710Z,29.16
2022-08-22T08:58:10.268Z,29.80
2022-08-22T09:00:56.135Z,30.18
2022-08-22T09:03:33.766Z,30.53
2022-08-22T09:06:11.313Z,30.86
2022-08-22T09:09:03.455Z,31.19
2022-08-22T09:11:56.235Z,31.57
2022-08-22T09:14:40.208Z,31.89
2022-08-22T09:17:34.262Z,32.26
2022-08-22T09:20:25.331Z,32.52
2022-08-22T09:23:10.077Z,32.71
2022-08-22T09:25:42.006Z,32.95
2022-08-22T09:28:14.284Z,33.22
2022-08-22T09:30:57.388Z,33.40
2022-08-22T09:33:34.534Z,33.35
2022-08-22T09:36:07.332Z,33.50
2022-08-22T09:38:49.703Z,33.47
2022-08-22T09:41:28.817Z,33.31
2022-08-22T09:44:05.178Z,33.14
2022-08-22T09:46:38.472Z,32.95
2022-08-22T09:49:11.004Z,32.83
2022-08-22T09:51:44.223Z,32.77
2022-08-22T09:54:22.638Z,32.69
2022-08-22T09:57:08.704Z,32.65
2022-08-22T10:00:13.632Z,32.66
2022-08-22T10:02:50.262Z,32.73
2022-08-22T10:05:40.776Z,32.86
2022-08-22T10:08:25.503Z,33.31
2022-08-22T10:11:11.248Z,33.75
2022-08-22T10:13:56.574Z,34.17
2022-08-22T10:16:45.967Z,34.48
2022-08-22T10:19:25.396Z,34.89
2022-08-22T10:22:30.324Z,35.27
2022-08-22T10:25:10.535Z,35.56
2022-08-22T10:27:45.527Z,35.41
2022-08-22T10:30:23.712Z,35.06
2022-08-22T10:32:58.340Z,34.87
2022-08-22T10:35:33.690Z,34.74
2022-08-22T10:38:10.662Z,34.51
2022-08-22T10:40:44.101Z,34.17
2022-08-22T10:43:20.111Z,33.87
2022-08-22T10:45:53.365Z,33.68
2022-08-22T10:48:29.492Z,33.59
2022-08-22T10:51:03.404Z,33.55
2022-08-22T10:53:55.924Z,33.54
2022-08-22T10:56:29.102Z,33.55
2022-08-22T10:59:03.990Z,33.52
2022-08-22T11:01:41.998Z,33.48
2022-08-22T11:04:19.632Z,33.43
2022-08-22T11:07:03.388Z,33.34
2022-08-22T11:09:43.985Z,33.25
2022-08-22T11:12:18.434Z,33.30
2022-08-22T11:14:58.408Z,33.44
2022-08-22T11:17:40.644Z,33.78
2022-08-22T11:20:19.621Z,34.21
2022-08-22T11:22:57.023Z,34.53
2022-08-22T11:25:38.762Z,34.68
2022-08-22T11:28:23.122Z,34.81
2022-08-22T11:31:00.901Z,34.68
2022-08-22T11:33:46.315Z,34.69
2022-08-22T11:36:31.103Z,34.65
2022-08-22T11:39:07.924Z,34.43
2022-08-22T11:41:55.763Z,34.52
2022-08-22T11:44:32.143Z,34.30
2022-08-22T11:47:11.655Z,34.23
2022-08-22T11:49:45.912Z,34.35
2022-08-22T11:52:24.753Z,34.48
2022-08-22T11:55:18.237Z,34.75
2022-08-22T11:57:52.185Z,34.97
2022-08-22T12:00:32.161Z,35.23
2022-08-22T12:03:23.162Z,35.51
2022-08-22T12:05:56.628Z,35.86
2022-08-22T12:08:46.620Z,36.17
2022-08-22T12:11:18.560Z,36.49
2022-08-22T12:13:51.357Z,36.56
2022-08-22T12:16:36.120Z,36.40
2022-08-22T12:19:10.973Z,36.21
2022-08-22T12:22:03.220Z,36.15
2022-08-22T12:24:55.797Z,36.40
2022-08-22T12:27:37.706Z,36.76
2022-08-22T12:30:17.278Z,37.08
2022-08-22T12:33:05.727Z,37.33
2022-08-22T12:35:38.826Z,37.54
2022-08-22T12:38:28.277Z,37.75
2022-08-22T12:41:08.104Z,37.65
2022-08-22T12:43:44.228Z,37.35
2022-08-22T12:46:24.770Z,37.15
2022-08-22T12:49:15.914Z,37.21
2022-08-22T12:51:51.965Z,36.99
2022-08-22T12:54:37.392Z,36.78
2022-08-22T12:57:24.458Z,37.02
2022-08-22T12:59:58.952Z,37.39
2022-08-22T13:02:34.857Z,37.46
2022-08-22T13:05:11.009Z,37.66
2022-08-22T13:07:41.990Z,37.66
2022-08-22T13:10:33.227Z,37.54
2022-08-22T13:13:12.349Z,37.40
2022-08-22T13:15:47.049Z,37.13
2022-08-22T13:18:29.965Z,37.23
2022-08-22T13:21:02.631Z,37.41
2022-08-22T13:23:40.018Z,37.33
2022-08-22T13:26:31.832Z,37.07
2022-08-22T13:29:25.150Z,36.64
2022-08-22T13:32:01.908Z,35.93
2022-08-22T13:34:39.986Z,35.69
2022-08-22T13:37:13.209Z,35.39
2022-08-22T13:39:49.208Z,35.27
2022-08-22T13:42:30.272Z,35.19
2022-08-22T13:45:06.538Z,35.10
2022-08-22T13:47:39.575Z,35.06
2022-08-22T13:50:14.032Z,35.00
2022-08-22T13:52:52.604Z,35.01
2022-08-22T13:55:30.344Z,35.02
2022-08-22T13:58:02.573Z,35.06
2022-08-22T14:00:57.426Z,34.92
2022-08-22T14:03:31.532Z,34.58
2022-08-22T14:06:32.560Z,34.28
2022-08-22T14:08:57.524Z,34.08
2022-08-22T14:11:30.807Z,34.05
2022-08-22T14:14:02.337Z,34.05
2022-08-22T14:16:34.924Z,33.90
2022-08-22T14:19:06.821Z,33.69
2022-08-22T14:21:40.501Z,33.61
2022-08-22T14:24:25.752Z,33.38
2022-08-22T14:27:00.044Z,33.18
2022-08-22T14:29:50.248Z,33.05
2022-08-22T14:32:42.564Z,32.94
2022-08-22T14:35:21.656Z,32.83
2022-08-22T14:38:02.919Z,32.72
2022-08-22T14:40:35.444Z,32.65
2022-08-22T14:43:06.610Z,32.74
2022-08-22T14:45:38.118Z,32.94
2022-08-22T14:48:31.690Z,33.06
2022-08-22T14:51:05.226Z,33.14
2022-08-22T14:53:37.119Z,33.13
2022-08-22T14:56:19.372Z,33.17
2022-08-22T14:58:53.688Z,33.21
2022-08-22T15:01:26.475Z,33.18
2022-08-22T15:04:05.571Z,33.02
2022-08-22T15:06:47.853Z,32.78
2022-08-22T15:09:28.377Z,32.46
2022-08-22T15:12:03.774Z,32.33
2022-08-22T15:14:51.969Z,32.20
2022-08-22T15:17:38.059Z,31.81
2022-08-22T15:20:14.184Z,31.53
2022-08-22T15:22:48.990Z,31.29
2022-08-22T15:25:22.739Z,31.23
2022-08-22T15:27:56.205Z,31.24
2022-08-22T15:30:35.703Z,31.30
2022-08-22T15:33:11.068Z,31.38
2022-08-22T15:35:44.840Z,31.37
2022-08-22T15:38:32.550Z,31.33
2022-08-22T15:41:22.086Z,31.39
2022-08-22T15:43:54.101Z,31.42
2022-08-22T15:46:29.836Z,31.41
2022-08-22T15:49:02.162Z,31.37
2022-08-22T15:51:45.761Z,31.41
2022-08-22T15:54:24.902Z,31.38
2022-08-22T15:57:18.462Z,31.31
2022-08-22T15:59:54.757Z,31.31
2022-08-22T16:02:27.202Z,31.37
2022-08-22T16:05:04.183Z,31.39
2022-08-22T16:07:39.608Z,31.40
2022-08-22T16:10:12.365Z,31.40
2022-08-22T16:12:44.567Z,31.37
2022-08-22T16:15:35.333Z,31.34
2022-08-22T16:18:07.497Z,31.18
2022-08-22T16:20:56.782Z,31.09
2022-08-22T16:23:29.045Z,30.97
2022-08-22T16:26:09.722Z,30.75
2022-08-22T16:28:58.149Z,30.49
2022-08-22T16:31:33.476Z,30.33
2022-08-22T16:34:18.875Z,30.25
2022-08-22T16:36:50.910Z,30.16
2022-08-22T16:39:39.513Z,30.05
2022-08-22T16:42:30.172Z,29.91
2022-08-22T16:45:15.156Z,29.87
2022-08-22T16:47:56.597Z,29.90
2022-08-22T16:50:32.296Z,29.81
2022-08-22T16:53:07.767Z,29.70
2022-08-22T16:55:46.248Z,29.55
2022-08-22T16:58:56.605Z,29.44
2022-08-22T17:01:31.507Z,29.28
2022-08-22T17:04:04.442Z,29.19
2022-08-22T17:06:43.245Z,29.13
2022-08-22T17:09:18.692Z,29.06
2022-08-22T17:11:54.679Z,28.93
2022-08-22T17:14:28.432Z,28.78
2022-08-22T17:17:03.015Z,28.69
2022-08-22T17:19:46.875Z,28.65
2022-08-22T17:22:24.025Z,28.56
2022-08-22T17:25:01.543Z,28.42
2022-08-22T17:27:35.152Z,28.39
2022-08-22T17:30:07.253Z,28.38
2022-08-22T17:32:43.618Z,28.33
2022-08-22T17:35:19.197Z,28.23
2022-08-22T17:37:55.991Z,28.17
2022-08-22T17:40:30.524Z,28.18
2022-08-22T17:43:07.938Z,28.15
2022-08-22T17:45:42.357Z,28.12
2022-08-22T17:48:16.383Z,28.10
2022-08-22T17:50:48.343Z,28.02
2022-08-22T17:53:27.531Z,27.94
2022-08-22T17:56:02.075Z,27.86
2022-08-22T17:58:43.663Z,27.74
2022-08-22T18:01:16.740Z,27.73
2022-08-22T18:03:55.225Z,27.67
2022-08-22T18:06:27.570Z,27.61
2022-08-22T18:09:15.415Z,27.56
2022-08-22T18:11:47.477Z,27.52
2022-08-22T18:14:24.770Z,27.48
2022-08-22T18:16:56.601Z,27.44
2022-08-22T18:19:37.979Z,27.42
2022-08-22T18:22:13.046Z,27.40
2022-08-22T18:24:46.861Z,27.32
2022-08-22T18:27:34.198Z,27.24
2022-08-22T18:30:21.044Z,27.15
2022-08-22T18:32:55.948Z,27.07
2022-08-22T18:35:29.028Z,26.98
2022-08-22T18:38:01.953Z,26.86
2022-08-22T18:40:47.919Z,26.69
2022-08-22T18:43:24.196Z,26.57
2022-08-22T18:46:05.341Z,26.49
2022-08-22T18:48:54.713Z,26.37
2022-08-22T18:51:38.215Z,26.26
2022-08-22T18:54:27.152Z,26.18
2022-08-22T18:56:59.675Z,26.13
2022-08-22T18:59:35.748Z,26.09
2022-08-22T19:02:16.335Z,26.02
2022-08-22T19:05:12.831Z,25.97
2022-08-22T19:07:55.572Z,25.97
2022-08-22T19:10:37.971Z,25.97
2022-08-22T19:13:17.926Z,25.98
2022-08-22T19:15:52.500Z,25.94
2022-08-22T19:18:30.449Z,25.90
2022-08-22T19:21:41.191Z,25.87
2022-08-22T19:24:13.635Z,25.86
2022-08-22T19:26:47.842Z,25.86
2022-08-22T19:29:36.045Z,25.88
2022-08-22T19:32:13.230Z,25.90
2022-08-22T19:34:47.258Z,25.89
2022-08-22T19:37:30.665Z,25.88
2022-08-22T19:40:06.038Z,25.85
2022-08-22T19:42:37.862Z,25.78
2022-08-22T19:45:26.793Z,25.73
2022-08-22T19:48:02.045Z,25.67
2022-08-22T19:50:35.948Z,25.67
2022-08-22T19:53:20.619Z,25.70
2022-08-22T19:55:56.498Z,25.73
2022-08-22T19:58:32.608Z,25.69
2022-08-22T20:01:06.509Z,25.65
2022-08-22T20:03:44.109Z,25.64
2022-08-22T20:06:43.616Z,25.62
2022-08-22T20:09:22.401Z,25.65
2022-08-22T20:11:57.451Z,25.67
2022-08-22T20:14:32.746Z,25.68
2022-08-22T20:17:09.654Z,25.65
2022-08-22T20:22:42.785Z,25.63
2022-08-22T20:25:42.792Z,25.58
2022-08-22T20:28:11.863Z,25.49
2022-08-22T20:30:43.199Z,25.47
2022-08-22T20:33:17.718Z,25.49
2022-08-22T20:35:55.297Z,25.54
2022-08-22T20:38:30.005Z,25.53
2022-08-22T20:41:03.746Z,25.54
2022-08-22T20:43:45.563Z,25.55
2022-08-22T20:46:24.456Z,25.52
2022-08-22T20:48:56.604Z,25.52
2022-08-22T20:51:29.527Z,25.55
2022-08-22T20:54:10.240Z,25.60
2022-08-22T20:56:53.057Z,25.63
2022-08-22T20:59:27.698Z,25.65
2022-08-22T21:01:59.629Z,25.65
2022-08-22T21:04:34.045Z,25.65
2022-08-22T21:07:07.673Z,25.66
2022-08-22T21:09:55.821Z,25.67
2022-08-22T21:12:30.603Z,25.64
2022-08-22T21:15:02.843Z,25.59
2022-08-22T21:17:35.578Z,25.54
2022-08-22T21:20:21.427Z,25.55
2022-08-22T21:22:56.231Z,25.53
2022-08-22T21:25:29.747Z,25.53
2022-08-22T21:28:01.359Z,25.51
2022-08-22T21:30:35.284Z,25.48
2022-08-22T21:33:09.061Z,25.44
2022-08-22T21:35:39.896Z,25.42
2022-08-22T21:38:10.802Z,25.44
2022-08-22T21:40:48.769Z,25.46
2022-08-22T21:43:31.084Z,25.47
2022-08-22T21:46:01.838Z,25.50
2022-08-22T21:48:33.299Z,25.54
2022-08-22T21:51:24.183Z,25.59
2022-08-22T21:53:58.212Z,25.62
2022-08-22T21:56:45.666Z,25.64
2022-08-22T21:59:51.560Z,25.65
2022-08-22T22:02:36.870Z,25.66
2022-08-22T22:05:09.911Z,25.68
2022-08-22T22:07:42.861Z,25.72
2022-08-22T22:10:14.606Z,25.75
2022-08-22T22:12:48.442Z,25.77
2022-08-22T22:15:20.142Z,25.77
2022-08-22T22:17:55.620Z,25.75
2022-08-22T22:20:29.005Z,25.75
2022-08-22T22:23:07.152Z,25.74
2022-08-22T22:25:44.720Z,25.72
2022-08-22T22:28:17.306Z,25.70
2022-08-22T22:30:53.431Z,25.69
2022-08-22T22:33:28.489Z,25.69
2022-08-22T22:36:00.758Z,25.71
2022-08-22T22:38:31.523Z,25.71
2022-08-22T22:41:04.991Z,25.70
2022-08-22T22:43:40.771Z,25.71
2022-08-22T22:46:11.680Z,25.74
2022-08-22T22:48:42.445Z,25.79
2022-08-22T22:51:13.475Z,25.80
2022-08-22T22:53:45.088Z,25.78
2022-08-22T22:56:17.265Z,25.74
2022-08-22T22:58:59.003Z,25.72
2022-08-22T23:01:34.157Z,25.68
2022-08-22T23:04:05.870Z,25.61
2022-08-22T23:06:46.302Z,25.56
2022-08-22T23:09:19.879Z,25.54
2022-08-22T23:11:54.995Z,25.51
2022-08-22T23:14:25.817Z,25.49
2022-08-22T23:16:57.731Z,25.42
2022-08-22T23:19:29.897Z,25.39
2022-08-22T23:22:02.997Z,25.36
2022-08-22T23:24:34.408Z,25.29
2022-08-22T23:27:05.556Z,25.29
2022-08-22T23:29:37.310Z,25.27
2022-08-22T23:32:08.766Z,25.25
2022-08-22T23:34:44.150Z,25.24
2022-08-22T23:37:16.637Z,25.21
2022-08-22T23:39:51.355Z,25.23
2022-08-22T23:42:22.203Z,25.27
2022-08-22T23:44:53.060Z,25.27
2022-08-22T23:47:27.725Z,25.23
2022-08-22T23:49:58.550Z,25.16
2022-08-22T23:52:36.693Z,25.15
2022-08-22T23:55:12.316Z,25.14
2022-08-22T23:57:43.084Z,25.14
